Time;durP1;ratioP1;P1;durP2;ratioP2;P2;SDS_P1;SDS_P2;PMS_P1;PMS_P2;Temp;Humidity;BMP_temperature;BMP_pressure;BME280_temperature;BME280_humidity;BME280_pressure;Samples;Min_cycle;Max_cycle;Signal;HPM_P1;HPM_P2
2022/08/12 00:44:50;;;;;;;5.30;2.90;;;15.70;99.90;;;14.69;100.00;101940.72;4956713;28;20395;-73
2022/08/12 00:47:18;;;;;;;7.13;3.13;;;15.70;99.90;;;14.69;100.00;101945.16;4955815;28;20031;-73
2022/08/12 00:49:45;;;;;;;6.97;3.20;;;15.60;99.90;;;14.64;100.00;101941.81;4954106;28;20049;-73
2022/08/12 00:52:12;;;;;;;4.65;2.72;;;15.60;99.90;;;14.57;100.00;101938.59;4960277;28;20047;-72
2022/08/12 00:54:49;;;;;;;8.05;3.22;;;15.50;99.90;;;14.53;100.00;101937.81;4966861;28;20039;-73
2022/08/12 00:57:22;;;;;;;5.80;3.22;;;15.50;99.90;;;14.55;100.00;101940.44;4968018;28;20603;-73
2022/08/12 00:59:56;;;;;;;6.85;3.40;;;15.50;99.90;;;14.59;100.00;101941.19;4952791;28;20030;-73
2022/08/12 01:02:33;;;;;;;6.47;3.80;;;15.60;99.90;;;14.66;100.00;101942.63;4965456;28;20499;-74
2022/08/12 01:13:33;;;;;;;6.32;3.60;;;15.70;99.90;;;14.76;100.00;101939.50;4958054;28;20169;-73
2022/08/12 01:16:04;;;;;;;6.90;3.33;;;15.70;99.90;;;14.74;100.00;101946.66;4958581;28;20035;-73
2022/08/12 01:18:36;;;;;;;6.53;3.25;;;15.70;99.90;;;14.77;100.00;101940.34;4969951;28;20046;-74
2022/08/12 01:21:08;;;;;;;7.65;3.25;;;15.70;99.90;;;14.71;100.00;101944.16;4946395;28;20055;-74
2022/08/12 01:24:12;;;;;;;4.90;3.30;;;15.70;99.90;;;14.71;100.00;101941.50;4968167;28;20035;-74
2022/08/12 01:26:40;;;;;;;9.13;3.35;;;15.60;99.90;;;14.67;100.00;101939.06;4970378;28;20060;-74
2022/08/12 01:29:06;;;;;;;6.47;3.03;;;15.60;99.90;;;14.66;100.00;101938.19;4958351;28;20054;-74
2022/08/12 01:31:36;;;;;;;5.65;3.75;;;15.60;99.90;;;14.69;100.00;101934.56;4960810;28;20051;-72
2022/08/12 01:34:06;;;;;;;7.03;3.80;;;15.60;99.90;;;14.69;100.00;101945.16;4937832;28;20035;-74
2022/08/12 01:36:45;;;;;;;10.32;3.40;;;15.70;99.90;;;14.71;100.00;101933.56;4957620;28;21500;-74
2022/08/12 01:39:15;;;;;;;8.63;4.18;;;15.60;99.90;;;14.72;100.00;101934.41;4951004;28;20034;-73
2022/08/12 01:41:53;;;;;;;8.20;3.78;;;15.60;99.90;;;14.72;100.00;101932.59;4989763;28;20117;-73
2022/08/12 01:44:21;;;;;;;7.18;3.70;;;15.60;99.90;;;14.71;100.00;101935.34;4952556;28;20030;-73
2022/08/12 01:47:03;;;;;;;7.00;3.80;;;15.60;99.90;;;14.70;100.00;101938.91;4965379;28;20034;-73
2022/08/12 01:50:04;;;;;;;6.63;3.65;;;15.60;99.90;;;14.69;100.00;101934.56;4954614;28;20031;-73
2022/08/12 01:52:54;;;;;;;7.25;3.70;;;15.60;99.90;;;14.66;100.00;101938.19;4970271;28;20503;-73
2022/08/12 01:55:25;;;;;;;5.60;3.30;;;15.60;99.90;;;14.68;100.00;101930.16;4968423;28;20047;-73
2022/08/12 01:58:14;;;;;;;6.60;3.80;;;15.60;99.90;;;14.67;100.00;101933.75;4967660;28;20030;-74
2022/08/12 02:00:50;;;;;;;8.63;3.20;;;15.60;99.90;;;14.67;100.00;101926.66;4970173;28;20470;-74
2022/08/12 02:13:22;;;;;;;3.83;2.58;;;15.60;99.90;;;14.62;100.00;101920.72;4971095;28;20049;-74
2022/08/12 02:16:13;;;;;;;8.55;3.10;;;15.60;99.90;;;14.68;100.00;101914.25;4970405;28;20046;-74
2022/08/12 02:19:26;;;;;;;4.88;2.88;;;15.60;99.90;;;14.72;100.00;101910.53;4934536;28;20377;-75
2022/08/12 02:22:10;;;;;;;6.85;3.28;;;15.60;99.90;;;14.73;100.00;101902.53;4984080;28;20047;-74
2022/08/12 02:24:38;;;;;;;8.38;3.30;;;15.70;99.90;;;14.76;100.00;101898.88;4967402;28;20573;-73
2022/08/12 02:27:07;;;;;;;9.10;3.20;;;15.70;99.90;;;14.78;100.00;101899.66;4956811;28;20069;-73
2022/08/12 02:29:34;;;;;;;5.07;3.08;;;15.70;99.90;;;14.80;100.00;101900.47;4922875;28;20521;-75
2022/08/12 02:32:01;;;;;;;8.80;3.53;;;15.70;99.90;;;14.82;100.00;101901.25;4967310;28;20062;-74
2022/08/12 02:34:29;;;;;;;8.30;3.42;;;15.70;99.90;;;14.84;100.00;101899.38;4956688;28;20042;-73
2022/08/12 02:36:56;;;;;;;11.38;3.90;;;15.70;99.90;;;14.87;100.00;101904.53;4964716;28;20117;-73
2022/08/12 02:39:27;;;;;;;8.43;3.38;;;15.80;99.90;;;14.89;100.00;101899.16;4960112;28;20130;-73
2022/08/12 02:41:56;;;;;;;7.10;3.53;;;15.80;99.90;;;14.90;100.00;101899.13;4962583;28;20478;-73
2022/08/12 02:44:24;;;;;;;13.43;3.95;;;15.80;99.90;;;14.90;100.00;101896.47;4959029;28;20045;-74
2022/08/12 02:46:55;;;;;;;7.03;3.70;;;15.80;99.90;;;14.88;100.00;101902.75;4944493;28;20602;-73
2022/08/12 02:49:31;;;;;;;9.13;3.38;;;15.80;99.90;;;14.82;100.00;101895.94;4956388;28;20042;-73
2022/08/12 02:51:59;;;;;;;8.32;3.60;;;15.70;99.90;;;14.75;100.00;101902.44;4969339;28;20061;-74
2022/08/12 02:54:26;;;;;;;4.35;3.20;;;15.70;99.90;;;14.69;100.00;101908.03;4956198;28;20038;-73
2022/08/12 02:56:53;;;;;;;10.23;4.55;;;15.60;99.90;;;14.61;100.00;101908.38;4971015;28;20042;-74
2022/08/12 02:59:23;;;;;;;9.98;4.75;;;15.50;99.90;;;14.53;100.00;101913.13;4943964;28;20085;-73
2022/08/12 03:01:53;;;;;;;7.22;4.97;;;15.50;99.90;;;14.48;100.00;101910.66;4957523;28;20113;-73
2022/08/12 03:04:40;;;;;;;10.27;4.43;;;15.40;99.90;;;14.47;100.00;101908.97;4953093;28;20026;-73
2022/08/12 03:07:23;;;;;;;11.50;4.40;;;15.40;99.90;;;14.49;100.00;101915.06;4954390;28;20097;-73
2022/08/12 03:10:08;;;;;;;10.32;4.55;;;15.40;99.90;;;14.51;100.00;101922.91;4950438;28;20125;-73
2022/08/12 03:12:39;;;;;;;7.07;4.90;;;15.50;99.90;;;14.52;100.00;101914.91;4962426;28;20108;-73
2022/08/12 03:15:10;;;;;;;8.75;4.68;;;15.50;99.90;;;14.55;100.00;101914.78;4956417;28;20482;-74
2022/08/12 03:17:56;;;;;;;13.52;4.97;;;15.50;99.90;;;14.52;100.00;101922.00;4957590;28;20176;-74
2022/08/12 03:20:23;;;;;;;7.57;4.85;;;15.50;99.90;;;14.49;100.00;101909.75;4972407;28;20046;-75
2022/08/12 03:22:52;;;;;;;10.77;4.88;;;15.40;99.90;;;14.48;100.00;101918.63;4957109;28;20376;-74
2022/08/12 03:25:25;;;;;;;13.07;5.60;;;15.40;99.90;;;14.48;100.00;101918.63;4958347;28;20035;-73
2022/08/12 03:27:55;;;;;;;9.00;4.43;;;15.50;99.90;;;14.49;100.00;101920.38;4959581;28;20035;-74
2022/08/12 03:30:30;;;;;;;8.95;5.32;;;15.40;99.90;;;14.49;100.00;101920.38;4952715;28;20041;-73
2022/08/12 03:32:59;;;;;;;9.13;5.20;;;15.40;99.90;;;14.56;100.00;101923.63;4955583;28;20046;-74
2022/08/12 03:35:32;;;;;;;10.80;5.53;;;15.50;99.90;;;14.58;100.00;101924.44;4954480;28;20058;-73
2022/08/12 03:38:07;;;;;;;11.18;5.72;;;15.50;99.90;;;14.61;100.00;101920.78;4960282;28;20042;-74
2022/08/12 04:01:08;;;;;;;21.15;6.50;;;15.50;99.90;;;14.67;100.00;101920.50;4959353;28;20414;-73
2022/08/12 04:03:53;;;;;;;16.58;7.30;;;15.60;99.90;;;14.69;100.00;101926.59;4949599;28;20031;-74
2022/08/12 04:06:29;;;;;;;10.77;6.82;;;15.60;99.90;;;14.72;100.00;101923.78;4953968;28;20056;-74
2022/08/12 04:08:58;;;;;;;9.90;5.90;;;15.60;99.90;;;14.71;100.00;101916.78;4955963;28;20026;-76
2022/08/12 04:14:24;;;;;;;22.08;8.70;;;15.60;99.90;;;14.80;100.00;101924.31;4955411;28;20032;-74
2022/08/12 04:16:50;;;;;;;14.40;6.30;;;15.60;99.90;;;14.85;100.00;101924.09;4942628;28;20463;-75
2022/08/12 04:19:17;;;;;;;13.20;6.95;;;15.70;99.90;;;14.94;100.00;101921.88;4968348;28;20042;-74
2022/08/12 04:21:47;;;;;;;17.08;6.72;;;15.80;99.90;;;15.08;100.00;101923.91;4956585;28;20443;-74
2022/08/12 04:24:13;;;;;;;26.63;7.63;;;16.00;99.90;;;15.30;100.00;101934.38;4959067;28;20034;-74
2022/08/12 04:26:39;;;;;;;11.48;6.40;;;16.30;99.90;;;15.87;100.00;101942.25;4955409;28;20034;-74
2022/08/12 04:29:09;;;;;;;8.88;5.47;;;17.30;99.90;;;17.54;100.00;101943.22;4935317;28;20592;-74
2022/08/12 04:31:40;;;;;;;8.65;5.68;;;18.50;99.90;;;19.09;100.00;101945.59;4953727;28;20034;-74
2022/08/12 04:34:10;;;;;;;8.52;4.88;;;19.20;99.90;;;19.69;100.00;101945.28;4959896;28;20038;-74
2022/08/12 04:36:39;;;;;;;15.88;4.20;;;20.50;99.90;;;21.76;89.08;101943.34;4962596;28;20680;-75
2022/08/12 04:39:09;;;;;;;8.52;3.67;;;21.80;99.90;;;23.55;77.42;101951.75;4940794;28;20035;-74
2022/08/12 04:41:37;;;;;;;12.75;3.25;;;23.20;99.90;;;25.15;70.16;101959.66;4952774;28;20046;-75
2022/08/12 04:44:05;;;;;;;10.55;3.40;;;24.40;99.90;;;26.61;64.70;101962.47;4955721;28;20372;-75
2022/08/12 04:46:31;;;;;;;13.73;3.00;;;25.60;99.90;;;27.98;60.11;101971.53;4955073;28;20034;-75
2022/08/12 04:48:57;;;;;;;7.32;3.03;;;26.50;99.90;;;28.88;56.76;101979.50;4952875;28;20039;-75
2022/08/12 04:51:24;;;;;;;5.03;2.80;;;27.40;99.90;;;29.91;53.93;101979.31;4950865;28;20031;-74
2022/08/12 04:53:50;;;;;;;11.88;2.45;;;28.00;99.90;;;30.59;51.56;101989.00;4934189;28;20062;-74
2022/08/12 04:56:16;;;;;;;7.00;2.50;;;28.70;99.90;;;31.39;49.77;101984.47;4930261;28;20497;-74
2022/08/12 04:58:42;;;;;;;6.65;2.55;;;29.40;99.90;;;32.37;48.46;101997.38;4957876;28;20042;-74
2022/08/12 05:01:09;;;;;;;7.22;2.25;;;30.00;98.70;;;32.89;46.96;102002.00;4949201;28;20031;-74
2022/08/12 05:03:38;;;;;;;3.58;2.30;;;30.50;97.90;;;33.62;45.66;102007.56;4968681;28;20675;-74
2022/08/12 05:06:06;;;;;;;6.07;2.33;;;30.90;97.70;;;34.22;44.17;102004.59;4970335;28;23035;-74
2022/08/12 05:08:33;;;;;;;7.90;2.17;;;31.50;97.00;;;34.86;42.93;102012.66;4961617;28;20038;-75
2022/08/12 05:11:00;;;;;;;5.65;2.10;;;31.80;95.40;;;35.11;42.22;102026.66;4956090;28;20034;-74
2022/08/12 05:13:36;;;;;;;5.82;2.20;;;31.90;93.90;;;35.23;41.47;102026.97;4962387;28;20090;-74
2022/08/12 05:16:06;;;;;;;7.15;1.90;;;32.30;94.00;;;36.23;40.08;102035.44;4956850;28;20093;-75
2022/08/12 05:18:34;;;;;;;6.10;1.65;;;32.40;93.60;;;36.01;40.29;102039.41;4960779;28;20042;-75
2022/08/12 05:21:00;;;;;;;5.38;1.70;;;32.90;93.90;;;37.00;38.36;102054.13;4962067;28;20027;-74
2022/08/12 05:23:27;;;;;;;5.13;2.08;;;33.50;92.80;;;37.96;37.00;102056.88;4959668;28;20039;-74
2022/08/12 05:25:55;;;;;;;7.78;1.83;;;34.00;91.60;;;38.47;35.97;102060.53;4953626;28;20073;-74
2022/08/12 05:28:23;;;;;;;6.75;2.10;;;34.30;91.40;;;38.91;35.44;102058.63;4983935;28;20040;-75
2022/08/12 05:30:49;;;;;;;6.32;2.10;;;34.60;88.80;;;38.98;35.13;102066.84;4953359;28;20049;-75
2022/08/12 05:33:17;;;;;;;4.03;1.83;;;34.50;89.30;;;38.61;34.91;102077.78;4955027;28;20115;-75
2022/08/12 05:35:46;;;;;;;8.27;2.25;;;34.60;89.20;;;38.89;34.45;102074.53;4951509;28;20040;-75
2022/08/12 05:41:04;;;;;;;4.53;2.00;;;34.80;88.80;;;39.22;33.94;102087.09;4968939;28;20454;-75
2022/08/12 05:43:33;;;;;;;7.57;2.08;;;35.20;85.70;;;39.42;33.81;102083.28;4949657;28;20027;-76
2022/08/12 05:45:59;;;;;;;4.72;2.00;;;35.50;86.00;;;40.12;32.79;102094.59;4949743;28;20053;-75
2022/08/12 05:48:25;;;;;;;2.38;1.90;;;35.70;84.20;;;40.05;32.36;102090.28;4939894;28;20042;-75
2022/08/12 05:50:51;;;;;;;9.40;2.42;;;35.90;83.80;;;40.14;32.16;102091.59;4942802;28;20039;-75
2022/08/12 05:53:18;;;;;;;6.47;2.17;;;36.10;85.80;;;40.99;31.52;102096.69;4960888;28;20113;-75
2022/08/12 05:55:44;;;;;;;5.80;2.22;;;36.40;81.80;;;40.72;31.59;102090.03;4959764;28;20043;-75
2022/08/12 05:58:10;;;;;;;4.68;2.15;;;36.20;80.90;;;40.00;32.44;102088.19;4970414;28;20519;-75
2022/08/12 06:00:36;;;;;;;3.72;1.95;;;36.30;82.90;;;40.19;31.68;102095.31;4974368;28;20651;-77
2022/08/12 06:03:04;;;;;;;6.00;2.80;;;36.10;79.70;;;39.42;32.61;102088.78;4969573;28;20061;-75
2022/08/12 06:05:37;;;;;;;6.85;3.03;;;36.30;78.50;;;40.17;31.27;102088.34;4920857;28;20114;-76
2022/08/12 06:08:06;;;;;;;6.10;2.50;;;36.50;80.30;;;40.72;30.36;102087.28;4948466;28;20038;-75
2022/08/12 06:10:33;;;;;;;3.67;2.30;;;36.80;78.00;;;40.53;30.72;102084.59;4961761;28;20075;-74
2022/08/12 06:13:01;;;;;;;11.35;3.00;;;37.00;79.30;;;40.85;30.58;102091.72;4957118;28;20035;-74
2022/08/12 06:15:28;;;;;;;8.13;2.80;;;37.10;77.70;;;40.80;30.26;102086.88;4949673;28;20081;-74
2022/08/12 06:18:04;;;;;;;15.18;2.47;;;37.20;74.90;;;40.67;30.22;102084.34;4970764;28;20061;-76
2022/08/12 06:20:30;;;;;;;4.30;2.38;;;37.30;74.10;;;40.55;30.05;102076.06;4958762;28;20035;-74
2022/08/12 06:22:56;;;;;;;8.50;2.63;;;37.70;75.50;;;41.14;29.21;102085.19;4961882;28;20031;-74
2022/08/12 06:25:25;;;;;;;5.00;2.28;;;37.80;73.70;;;40.80;28.97;102089.66;4957623;28;20039;-75
2022/08/12 06:27:51;;;;;;;8.15;2.42;;;37.70;73.60;;;40.19;29.53;102084.28;4973627;28;20030;-74
2022/08/12 06:30:19;;;;;;;6.75;2.50;;;37.20;70.50;;;39.41;30.45;102078.84;4972976;28;20066;-74
2022/08/12 06:32:48;;;;;;;5.05;2.53;;;36.90;73.50;;;38.51;30.85;102077.44;4947376;28;20042;-74
2022/08/12 06:35:16;;;;;;;8.13;2.67;;;36.60;74.70;;;38.62;31.82;102067.59;4936901;28;20129;-74
2022/08/12 06:37:46;;;;;;;7.60;2.50;;;36.80;73.90;;;39.11;30.89;102071.34;4956135;28;20043;-75
2022/08/12 06:40:13;;;;;;;6.80;2.50;;;37.00;74.80;;;39.40;30.68;102058.72;4960871;28;20030;-75
2022/08/12 06:42:51;;;;;;;6.93;2.40;;;37.60;74.30;;;40.15;29.84;102072.06;4960517;28;20049;-75
2022/08/12 06:45:20;;;;;;;9.20;2.67;;;38.10;72.80;;;40.57;28.60;102069.22;4938558;28;20587;-74
2022/08/12 06:47:47;;;;;;;9.70;3.28;;;38.60;69.40;;;40.92;28.62;102070.31;4956917;28;20045;-75
2022/08/12 06:50:15;;;;;;;4.95;2.53;;;39.00;68.90;;;40.42;28.66;102076.31;4937329;28;20027;-75
2022/08/12 06:52:44;;;;;;;9.15;2.42;;;39.00;66.10;;;40.12;28.88;102077.22;4953621;28;20523;-73
2022/08/12 06:55:14;;;;;;;7.60;2.25;;;39.20;68.30;;;40.71;28.68;102080.88;4946418;28;20514;-74
2022/08/12 06:57:55;;;;;;;5.45;2.38;;;39.30;66.50;;;40.38;28.35;102082.31;4953153;28;20047;-74
2022/08/12 07:00:24;;;;;;;7.05;2.22;;;39.30;67.00;;;40.02;29.43;102075.00;4967753;28;20114;-74
2022/08/12 07:02:54;;;;;;;8.88;2.53;;;39.60;68.80;;;41.20;28.22;102075.09;4956912;28;20549;-74
2022/08/12 07:05:23;;;;;;;8.05;2.22;;;40.10;65.60;;;41.93;26.75;102080.94;4936227;28;20046;-75
2022/08/12 07:07:58;;;;;;;7.47;2.35;;;40.50;64.70;;;41.64;26.51;102072.66;4973692;28;20050;-74
2022/08/12 07:10:25;;;;;;;7.95;2.33;;;40.80;63.10;;;41.59;26.70;102078.09;4972829;28;20039;-74
2022/08/12 07:12:56;;;;;;;6.25;2.10;;;41.10;63.30;;;42.20;26.69;102084.72;4953743;28;20038;-73
2022/08/12 07:15:24;;;;;;;6.47;2.35;;;40.80;60.70;;;41.02;27.38;102069.69;4967939;28;20042;-74
2022/08/12 07:18:10;;;;;;;7.35;2.05;;;41.20;63.90;;;42.23;26.28;102083.41;4958567;28;20050;-74
2022/08/12 07:20:44;;;;;;;4.90;2.22;;;41.60;60.70;;;42.64;25.77;102085.97;4952582;28;20039;-74
2022/08/12 07:23:11;;;;;;;6.03;1.85;;;41.60;59.00;;;41.48;26.58;102079.78;4956734;28;20115;-75
2022/08/12 07:25:43;;;;;;;7.43;2.38;;;41.80;61.80;;;42.02;25.59;102078.63;4948455;28;20047;-74
2022/08/12 07:28:24;;;;;;;3.47;2.00;;;41.70;59.30;;;41.58;26.42;102076.44;4969446;28;20566;-77
2022/08/12 07:30:55;;;;;;;4.97;2.08;;;41.50;60.20;;;41.27;26.33;102066.66;4966341;28;20057;-74
2022/08/12 07:33:29;;;;;;;5.88;2.28;;;41.50;59.80;;;41.35;26.42;102078.16;4958571;28;20050;-75
2022/08/12 07:36:01;;;;;;;10.18;2.55;;;41.20;59.10;;;40.84;26.90;102063.22;4941445;28;20027;-74
2022/08/12 07:38:30;;;;;;;8.40;2.22;;;40.80;58.50;;;39.83;27.52;102056.84;4959921;28;20039;-75
2022/08/12 07:41:04;;;;;;;9.35;2.35;;;40.40;59.00;;;39.67;27.21;102055.59;4971412;28;20035;-74
2022/08/12 07:43:34;;;;;;;7.57;1.80;;;40.50;59.60;;;40.56;26.78;102055.66;4965819;28;20035;-75
2022/08/12 07:46:03;;;;;;;4.95;2.03;;;40.90;57.50;;;40.94;25.57;102055.19;4965898;28;20491;-74
2022/08/12 07:48:42;;;;;;;6.28;1.95;;;41.20;57.80;;;41.67;24.60;102063.88;4959455;28;20113;-74
2022/08/12 07:51:08;;;;;;;5.25;2.00;;;41.80;57.40;;;42.14;24.43;102065.53;4955645;28;20069;-74
2022/08/12 07:53:35;;;;;;;7.07;1.95;;;42.20;58.00;;;42.71;23.67;102070.03;4958169;28;20047;-75
2022/08/12 07:56:04;;;;;;;6.72;1.90;;;42.70;56.30;;;42.76;23.65;102078.41;4959773;28;20078;-75
2022/08/12 07:58:31;;;;;;;6.82;1.90;;;42.70;55.60;;;42.43;23.88;102076.56;4934861;28;20492;-74
2022/08/12 08:01:01;;;;;;;17.52;2.15;;;42.50;55.40;;;42.36;24.19;102077.53;4958437;28;20046;-75
2022/08/12 08:03:28;;;;;;;13.85;2.60;;;42.10;54.30;;;41.24;25.02;102068.00;4968942;28;20043;-75
2022/08/12 08:05:55;;;;;;;4.22;1.88;;;41.80;55.90;;;41.26;24.92;102067.75;4953592;28;20046;-75
2022/08/12 08:08:26;;;;;;;5.78;2.10;;;41.80;56.90;;;41.49;24.41;102066.81;4951535;28;20503;-76
2022/08/12 08:12:52;;;;;;;4.35;1.80;;;41.50;53.80;;;41.31;23.23;102062.31;4935412;28;20408;-75
2022/08/12 08:13:45;;;;;;;8.70;2.10;;;41.50;55.00;;;41.28;23.70;102069.19;4960060;28;20725;-74
2022/08/12 08:16:14;;;;;;;3.47;1.80;;;41.10;53.50;;;40.47;24.39;102060.72;4958272;28;20046;-74
2022/08/12 08:18:41;;;;;;;9.77;2.30;;;41.00;55.60;;;40.84;24.06;102065.16;4959060;28;20516;-74
2022/08/12 08:21:09;;;;;;;9.93;2.03;;;40.90;52.30;;;40.69;23.79;102057.34;4953514;28;20554;-75
2022/08/12 08:26:21;;;;;;;5.63;2.00;;;40.30;54.30;;;39.68;24.63;102055.38;4958498;28;20104;-74
2022/08/12 08:28:47;;;;;;;4.85;2.00;;;39.70;52.50;;;38.54;25.26;102050.31;4960712;28;20037;-75
2022/08/12 08:31:13;;;;;;;11.85;2.40;;;39.30;54.40;;;38.47;26.22;102048.66;4954272;28;20042;-75
2022/08/12 08:33:40;;;;;;;2.53;2.05;;;38.90;55.10;;;38.14;25.66;102039.66;4953015;28;20049;-76
2022/08/12 08:36:08;;;;;;;9.15;2.08;;;38.50;56.90;;;38.34;26.44;102033.16;4971357;28;20046;-75
2022/08/12 08:38:34;;;;;;;5.15;1.98;;;38.40;54.30;;;38.27;25.94;102032.34;4959672;28;20066;-74
2022/08/12 08:43:48;;;;;;;9.27;2.30;;;37.30;56.10;;;36.81;27.40;102022.97;4970776;28;20041;-74
2022/08/12 08:46:14;;;;;;;7.22;2.10;;;36.90;54.90;;;36.39;27.40;102020.44;4953443;28;20038;-74
2022/08/12 08:48:40;;;;;;;6.57;1.85;;;36.70;55.20;;;36.52;26.22;102023.19;4959876;28;20069;-74
2022/08/12 08:51:06;;;;;;;8.25;2.00;;;36.40;55.90;;;36.36;26.69;102020.88;4958170;28;20042;-75
2022/08/12 08:53:33;;;;;;;4.72;1.65;;;36.20;56.60;;;36.08;27.07;102018.31;4976168;28;20042;-75
2022/08/12 08:55:59;;;;;;;7.45;1.70;;;35.90;56.60;;;35.79;27.46;101998.50;4974753;28;20475;-74
2022/08/12 08:58:25;;;;;;;6.20;1.80;;;35.80;57.50;;;35.44;28.65;102000.47;4960039;28;20112;-75
2022/08/12 09:00:51;;;;;;;19.77;2.15;;;35.50;57.20;;;34.93;28.51;101991.63;4973768;28;20082;-75
2022/08/12 09:03:18;;;;;;;23.02;2.67;;;35.20;58.20;;;34.65;29.16;101986.22;4952126;28;20027;-74
2022/08/12 09:05:44;;;;;;;3.63;1.77;;;35.00;57.60;;;34.38;29.10;101976.94;4963561;28;20531;-74
2022/08/12 09:08:11;;;;;;;12.23;1.95;;;34.80;59.10;;;34.24;29.67;101977.91;4981620;28;20038;-73
2022/08/12 09:10:37;;;;;;;11.70;2.10;;;34.70;59.20;;;34.21;30.00;101972.81;4977734;28;20027;-74
2022/08/12 09:15:49;;;;;;;8.52;2.10;;;34.40;58.80;;;33.75;29.79;101965.88;4955566;28;20779;-74
2022/08/12 09:18:17;;;;;;;6.80;1.98;;;34.20;60.10;;;33.60;30.75;101959.63;4980663;28;20049;-74
2022/08/12 09:20:44;;;;;;;6.72;1.98;;;34.00;60.10;;;33.33;30.82;101961.19;4963159;28;20531;-74
2022/08/12 09:23:12;;;;;;;14.07;1.88;;;33.70;60.10;;;32.93;31.00;101956.06;4976964;28;20038;-74
2022/08/12 09:25:47;;;;;;;12.85;2.00;;;33.50;60.00;;;32.83;30.90;101953.66;4966417;28;20041;-73
2022/08/12 09:28:14;;;;;;;4.10;1.70;;;33.40;60.70;;;32.87;31.35;101949.50;4967548;28;20039;-74
2022/08/12 09:30:48;;;;;;;4.20;1.85;;;33.50;60.50;;;33.01;30.94;101946.94;4961205;28;20042;-74
2022/08/12 09:33:20;;;;;;;3.95;1.85;;;33.50;59.50;;;33.13;29.98;101945.44;4975639;28;20034;-75
2022/08/12 09:35:46;;;;;;;8.32;1.70;;;33.60;58.90;;;33.22;29.68;101944.31;4958210;28;20743;-75
2022/08/12 09:38:16;;;;;;;432.33;18.90;;;33.60;59.70;;;33.33;29.90;101950.28;4960416;28;20026;-75
2022/08/12 09:40:44;;;;;;;7.97;2.20;;;33.70;59.10;;;33.29;29.61;101941.66;4978542;28;20101;-74
2022/08/12 09:45:56;;;;;;;52.63;3.55;;;33.80;60.50;;;33.49;30.29;101941.84;4963166;28;20053;-75
2022/08/12 09:48:25;;;;;;;7.00;1.90;;;33.80;58.70;;;33.51;29.80;101957.00;4962847;28;20035;-76
2022/08/12 09:50:55;;;;;;;6.55;1.90;;;33.90;58.70;;;33.33;29.38;101956.59;4943365;28;20050;-75
2022/08/12 09:53:24;;;;;;;4.80;1.90;;;33.60;59.10;;;32.98;30.39;101952.78;4979941;28;20650;-75
2022/08/12 09:55:57;;;;;;;5.45;1.90;;;33.60;58.50;;;32.99;29.47;101949.84;4957839;28;20038;-75
2022/08/12 09:58:31;;;;;;;10.95;1.75;;;33.30;57.10;;;32.26;30.18;101948.78;4967964;28;20034;-75
2022/08/12 10:01:03;;;;;;;4.47;1.70;;;33.10;58.40;;;32.08;30.11;101944.53;4984007;28;20050;-74
2022/08/12 10:03:35;;;;;;;4.03;1.70;;;32.80;58.10;;;32.00;30.27;101941.03;4976773;28;20034;-75
2022/08/12 10:06:05;;;;;;;5.03;2.28;;;32.70;61.40;;;32.13;31.68;101933.06;4945036;28;20104;-75
2022/08/12 10:08:34;;;;;;;7.13;1.65;;;32.70;59.80;;;32.27;29.91;101931.44;4978574;28;20461;-75
2022/08/12 10:13:51;;;;;;;6.38;1.85;;;32.80;59.00;;;32.17;29.83;101919.94;4979427;28;20049;-74
2022/08/12 10:16:31;;;;;;;4.43;1.80;;;32.70;58.60;;;31.75;29.85;101916.72;4978013;28;20069;-76
2022/08/12 10:19:05;;;;;;;7.72;1.92;;;32.60;58.20;;;31.87;30.41;101912.50;4976395;28;20517;-75
2022/08/12 10:21:43;;;;;;;6.07;1.63;;;32.50;59.60;;;31.81;30.21;101909.66;4979594;28;20042;-74
2022/08/12 10:24:18;;;;;;;5.20;1.50;;;31.90;58.10;;;30.90;31.07;101905.84;4977613;28;20450;-74
2022/08/12 10:29:45;;;;;;;2.93;1.70;;;31.80;58.10;;;30.93;30.93;101905.47;4961924;28;20569;-75
2022/08/12 10:32:20;;;;;;;3.53;1.75;;;31.70;59.20;;;31.16;30.29;101903.63;4954979;28;20043;-75
2022/08/12 10:34:50;;;;;;;13.73;2.05;;;31.70;57.80;;;31.05;30.69;101901.34;4961378;28;20042;-75
2022/08/12 10:37:17;;;;;;;11.88;1.60;;;31.60;59.10;;;31.10;31.09;101882.59;4951416;28;20513;-75
2022/08/12 10:39:46;;;;;;;8.60;1.80;;;31.70;59.00;;;31.12;30.97;101880.53;4953727;28;20524;-75
2022/08/12 10:45:07;;;;;;;5.55;1.60;;;31.80;59.60;;;31.59;30.44;101893.19;4965387;28;20061;-76
2022/08/12 10:47:36;;;;;;;7.53;1.80;;;32.00;58.90;;;31.88;29.97;101886.16;4968427;28;21388;-75
2022/08/12 10:50:06;;;;;;;11.40;1.67;;;32.30;58.40;;;32.07;29.75;101901.13;4943906;28;20045;-74
2022/08/12 10:52:35;;;;;;;2.72;1.60;;;32.50;60.50;;;32.28;30.40;101895.78;4962719;28;20514;-76
2022/08/12 10:55:04;;;;;;;6.22;1.70;;;32.50;58.00;;;32.16;29.98;101891.84;4963304;28;20042;-75
2022/08/12 10:57:30;;;;;;;8.18;1.67;;;32.50;58.60;;;31.91;30.88;101891.22;4962807;28;20135;-75
2022/08/12 11:00:03;;;;;;;4.40;1.75;;;32.50;58.40;;;32.01;30.39;101889.09;4958375;28;20132;-74
2022/08/12 11:02:30;;;;;;;2.33;1.70;;;32.50;57.50;;;31.81;30.00;101888.72;4946503;28;20511;-75
2022/08/12 11:04:57;;;;;;;6.63;1.92;;;32.50;58.70;;;31.93;29.98;101893.75;4951574;28;20093;-74
2022/08/12 11:07:27;;;;;;;4.43;1.77;;;32.50;56.90;;;31.88;29.96;101895.16;4954829;28;20038;-75
2022/08/12 11:09:57;;;;;;;5.40;1.55;;;32.40;57.40;;;31.66;29.78;101893.28;4964139;28;20042;-75
2022/08/12 11:12:28;;;;;;;4.93;1.50;;;32.20;56.90;;;31.55;30.27;101894.56;4975156;28;20145;-75
2022/08/12 11:14:58;;;;;;;6.20;1.40;;;32.30;58.70;;;31.96;30.28;101886.03;4962253;28;20468;-75
2022/08/12 11:17:24;;;;;;;8.05;1.85;;;32.30;58.00;;;31.93;29.83;101889.16;4975964;28;20073;-75
2022/08/12 11:19:52;;;;;;;3.70;1.60;;;32.30;57.90;;;31.77;30.16;101886.56;4979129;28;20388;-74
2022/08/12 11:22:19;;;;;;;6.90;1.60;;;32.30;58.30;;;31.87;30.55;101887.16;4962709;28;20116;-75
2022/08/12 11:24:45;;;;;;;6.10;1.70;;;32.20;58.00;;;31.66;29.89;101883.28;4982732;28;20497;-74
2022/08/12 11:27:11;;;;;;;9.10;1.85;;;32.30;59.00;;;31.87;29.96;101881.72;4938210;28;20045;-74
2022/08/12 11:29:39;;;;;;;8.80;1.42;;;32.00;56.50;;;31.16;29.21;101889.19;4975490;28;20039;-75
2022/08/12 11:32:09;;;;;;;6.63;1.50;;;31.60;57.90;;;30.74;30.51;101885.81;4958188;28;20164;-75
2022/08/12 11:34:35;;;;;;;4.00;1.67;;;31.40;57.20;;;30.57;29.70;101871.44;4978143;28;20030;-75
2022/08/12 11:37:08;;;;;;;4.47;1.52;;;31.30;57.70;;;30.69;29.99;101866.44;4976524;28;20030;-73
2022/08/12 11:39:35;;;;;;;6.40;1.33;;;31.40;57.20;;;30.85;30.00;101876.44;4961833;28;20022;-75
2022/08/12 11:42:01;;;;;;;7.65;1.40;;;31.40;58.00;;;30.95;29.48;101881.66;4939805;28;20023;-73
2022/08/12 11:44:31;;;;;;;5.00;1.40;;;31.40;55.50;;;30.75;28.90;101873.06;4963770;28;20023;-73
2022/08/12 11:46:59;;;;;;;3.25;1.65;;;31.20;54.40;;;30.54;28.25;101870.94;4976918;28;20037;-73
2022/08/12 11:49:27;;;;;;;5.72;1.52;;;31.20;56.00;;;30.71;28.23;101871.72;4957484;28;20137;-74
2022/08/12 11:51:52;;;;;;;4.80;1.38;;;31.20;55.40;;;30.72;28.58;101877.00;4956284;28;20027;-74
2022/08/12 11:54:19;;;;;;;2.95;1.20;;;31.30;55.60;;;30.89;27.92;101880.53;4953213;28;20562;-73
2022/08/12 11:56:47;;;;;;;5.80;1.42;;;31.40;55.90;;;31.21;27.98;101875.88;4966800;28;20077;-74
2022/08/12 11:59:13;;;;;;;5.63;1.75;;;31.60;57.10;;;31.19;28.94;101867.94;4956917;28;20034;-73
2022/08/12 12:01:42;;;;;;;3.78;1.60;;;31.60;56.70;;;31.26;28.61;101874.34;4974283;28;20061;-74
2022/08/12 12:04:08;;;;;;;7.93;1.50;;;31.70;58.00;;;31.43;29.36;101863.38;4956769;28;20019;-74
2022/08/12 12:06:34;;;;;;;7.63;1.38;;;31.60;57.00;;;31.02;29.30;101860.91;4976053;28;20025;-75
2022/08/12 12:09:00;;;;;;;2.33;1.40;;;31.60;57.40;;;30.96;29.78;101867.91;4961989;28;20559;-73
2022/08/12 12:11:31;;;;;;;5.80;1.67;;;31.50;58.00;;;30.72;29.91;101857.97;4955946;28;20025;-74